createdAt,value
2023-04-26T00:00:20.906Z,81.12
2023-04-26T00:01:15.086Z,81.08
2023-04-26T00:01:48.283Z,81.08
2023-04-26T00:02:22.265Z,81.03
2023-04-26T00:02:56.047Z,80.99
2023-04-26T00:03:29.484Z,80.98
2023-04-26T00:04:03.856Z,81.00
2023-04-26T00:04:37.761Z,81.02
2023-04-26T00:05:11.426Z,81.01
2023-04-26T00:05:44.866Z,81.02
2023-04-26T00:06:18.085Z,81.03
2023-04-26T00:06:51.248Z,81.04
2023-04-26T00:07:25.428Z,81.04
2023-04-26T00:07:59.060Z,81.04
2023-04-26T00:08:32.347Z,81.03
2023-04-26T00:09:05.744Z,80.96
2023-04-26T00:09:41.900Z,80.89
2023-04-26T00:10:15.082Z,80.91
2023-04-26T00:10:48.275Z,80.91
2023-04-26T00:11:21.586Z,80.94
2023-04-26T00:11:54.808Z,80.93
2023-04-26T00:12:28.134Z,80.93
2023-04-26T00:13:01.377Z,80.91
2023-04-26T00:13:34.571Z,80.90
2023-04-26T00:14:07.828Z,80.90
2023-04-26T00:14:40.987Z,80.91
2023-04-26T00:15:14.152Z,80.91
2023-04-26T00:15:47.413Z,80.91
2023-04-26T00:16:21.244Z,80.91
2023-04-26T00:16:54.620Z,80.78
2023-04-26T00:17:27.794Z,80.74
2023-04-26T00:18:00.923Z,80.81
2023-04-26T00:18:34.361Z,80.85
2023-04-26T00:19:07.577Z,80.87
2023-04-26T00:19:41.242Z,80.87
2023-04-26T00:20:14.791Z,80.88
2023-04-26T00:20:48.031Z,80.90
2023-04-26T00:21:21.577Z,80.93
2023-04-26T00:21:54.785Z,80.95
2023-04-26T00:22:28.167Z,80.97
2023-04-26T00:23:01.377Z,80.98
2023-04-26T00:23:37.006Z,80.98
2023-04-26T00:24:10.185Z,80.98
2023-04-26T00:24:43.546Z,80.99
2023-04-26T00:25:16.650Z,81.00
2023-04-26T00:25:49.868Z,81.01
2023-04-26T00:26:22.989Z,80.99
2023-04-26T00:26:56.252Z,81.00
2023-04-26T00:27:29.318Z,80.93
2023-04-26T00:28:02.804Z,80.85
2023-04-26T00:28:36.024Z,80.85
2023-04-26T00:29:09.332Z,80.79
2023-04-26T00:29:42.549Z,80.74
2023-04-26T00:30:15.742Z,80.74
2023-04-26T00:30:49.228Z,80.74
2023-04-26T00:31:22.453Z,80.74
2023-04-26T00:31:55.682Z,80.74
2023-04-26T00:32:28.884Z,80.74
2023-04-26T00:33:02.095Z,80.77
2023-04-26T00:33:35.351Z,80.77
2023-04-26T00:34:08.516Z,80.77
2023-04-26T00:34:41.723Z,80.77
2023-04-26T00:35:15.004Z,80.69
2023-04-26T00:35:48.179Z,80.66
2023-04-26T00:36:21.319Z,80.63
2023-04-26T00:36:54.524Z,80.65
2023-04-26T00:37:27.743Z,80.66
2023-04-26T00:38:01.201Z,80.68
2023-04-26T00:38:34.244Z,80.70
2023-04-26T00:39:07.516Z,80.72
2023-04-26T00:39:40.818Z,80.71
2023-04-26T00:40:14.181Z,80.72
2023-04-26T00:40:47.451Z,80.74
2023-04-26T00:41:20.649Z,80.75
2023-04-26T00:41:54.076Z,80.77
2023-04-26T00:42:27.559Z,80.78
2023-04-26T00:43:00.801Z,80.76
2023-04-26T00:43:34.038Z,80.76
2023-04-26T00:44:07.610Z,80.75
2023-04-26T00:44:40.984Z,80.74
2023-04-26T00:45:14.247Z,80.76
2023-04-26T00:45:47.416Z,80.76
2023-04-26T00:46:21.411Z,80.76
2023-04-26T00:46:54.889Z,80.77
2023-04-26T00:47:30.052Z,80.79
2023-04-26T00:48:04.037Z,80.80
2023-04-26T00:48:37.820Z,80.80
2023-04-26T00:49:14.840Z,80.81
2023-04-26T00:49:48.007Z,80.81
2023-04-26T00:50:21.582Z,80.83
2023-04-26T00:50:55.098Z,80.84
2023-04-26T00:51:28.604Z,80.84
2023-04-26T00:52:02.078Z,80.85
2023-04-26T00:52:35.838Z,80.86
2023-04-26T00:53:09.597Z,80.86
2023-04-26T00:53:43.284Z,80.88
2023-04-26T00:54:16.639Z,80.88
2023-04-26T00:54:49.956Z,80.88
2023-04-26T00:55:23.706Z,80.90
2023-04-26T00:55:57.877Z,80.92
2023-04-26T00:56:32.352Z,80.93
2023-04-26T00:57:07.353Z,80.91
2023-04-26T00:57:41.106Z,80.89
2023-04-26T00:58:14.416Z,80.89
2023-04-26T00:58:47.556Z,80.89
2023-04-26T00:59:21.530Z,80.89
2023-04-26T00:59:54.769Z,80.85
2023-04-26T01:00:28.029Z,80.85
2023-04-26T01:01:01.353Z,80.87
2023-04-26T01:01:35.744Z,80.89
2023-04-26T01:02:09.520Z,80.89
2023-04-26T01:02:43.229Z,80.90
2023-04-26T01:03:17.512Z,80.90
2023-04-26T01:03:50.968Z,80.92
2023-04-26T01:04:27.683Z,80.94
2023-04-26T01:05:01.113Z,80.95
2023-04-26T01:05:34.311Z,80.96
2023-04-26T01:06:07.440Z,80.98
2023-04-26T01:06:41.704Z,80.98
2023-04-26T01:07:14.860Z,80.98
2023-04-26T01:07:48.304Z,80.93
2023-04-26T01:08:22.528Z,80.91
2023-04-26T01:08:57.494Z,80.93
2023-04-26T01:09:32.050Z,80.94
2023-04-26T01:10:06.292Z,80.93
2023-04-26T01:10:40.321Z,80.93
2023-04-26T01:11:14.239Z,80.93
2023-04-26T01:11:47.512Z,80.94
2023-04-26T01:12:21.026Z,80.93
2023-04-26T01:12:54.641Z,80.82
2023-04-26T01:13:29.092Z,80.84
2023-04-26T01:14:02.273Z,80.86
2023-04-26T01:14:37.053Z,80.87
2023-04-26T01:15:10.442Z,80.87
2023-04-26T01:15:45.779Z,80.88
2023-04-26T01:16:20.200Z,80.87
2023-04-26T01:16:53.401Z,80.87
2023-04-26T01:17:26.722Z,80.89
2023-04-26T01:18:00.120Z,80.91
2023-04-26T01:18:33.315Z,80.94
2023-04-26T01:19:12.662Z,80.93
2023-04-26T01:19:49.216Z,80.93
2023-04-26T01:20:22.468Z,80.81
2023-04-26T01:20:57.221Z,80.85
2023-04-26T01:21:30.285Z,80.88
2023-04-26T01:22:04.439Z,80.88
2023-04-26T01:22:37.602Z,80.89
2023-04-26T01:23:11.898Z,80.89
2023-04-26T01:23:44.954Z,80.90
2023-04-26T01:24:18.157Z,80.93
2023-04-26T01:24:51.867Z,80.95
2023-04-26T01:25:24.983Z,80.96
2023-04-26T01:25:58.205Z,80.98
2023-04-26T01:26:32.365Z,81.00
2023-04-26T01:27:05.546Z,81.01
2023-04-26T01:27:38.909Z,81.02
2023-04-26T01:28:12.162Z,81.04
2023-04-26T01:28:47.025Z,80.95
2023-04-26T01:29:21.865Z,80.98
2023-04-26T01:29:55.072Z,80.96
2023-04-26T01:30:28.274Z,80.96
2023-04-26T01:31:01.502Z,80.97
2023-04-26T01:31:34.730Z,80.99
2023-04-26T01:32:07.966Z,81.00
2023-04-26T01:32:41.070Z,81.01
2023-04-26T01:33:15.978Z,81.02
2023-04-26T01:33:49.055Z,81.03
2023-04-26T01:34:22.059Z,81.04
2023-04-26T01:34:55.295Z,81.05
2023-04-26T01:35:28.501Z,81.07
2023-04-26T01:36:01.954Z,81.08
2023-04-26T01:36:35.253Z,81.09
2023-04-26T01:37:08.323Z,81.10
2023-04-26T01:37:41.506Z,81.08
2023-04-26T01:38:14.931Z,81.08
2023-04-26T01:38:47.980Z,81.09
2023-04-26T01:39:21.443Z,81.11
2023-04-26T01:39:54.546Z,81.12
2023-04-26T01:40:27.650Z,81.11
2023-04-26T01:41:00.835Z,81.12
2023-04-26T01:41:34.015Z,81.12
2023-04-26T01:42:07.341Z,81.11
2023-04-26T01:42:40.497Z,81.12
2023-04-26T01:43:15.674Z,81.12
2023-04-26T01:43:48.794Z,81.11
2023-04-26T01:44:21.892Z,81.08
2023-04-26T01:44:55.068Z,81.09
2023-04-26T01:45:29.411Z,81.11
2023-04-26T01:46:02.919Z,81.10
2023-04-26T01:46:36.212Z,81.11
2023-04-26T01:47:09.346Z,81.13
2023-04-26T01:47:42.519Z,81.13
2023-04-26T01:48:15.745Z,81.14
2023-04-26T01:48:48.798Z,81.14
2023-04-26T01:49:22.060Z,81.08
2023-04-26T01:49:55.223Z,81.07
2023-04-26T01:50:28.537Z,81.00
2023-04-26T01:51:01.756Z,81.03
2023-04-26T01:51:34.938Z,81.05
2023-04-26T01:52:08.169Z,81.06
2023-04-26T01:52:41.320Z,81.06
2023-04-26T01:53:14.454Z,81.02
2023-04-26T01:53:47.617Z,81.01
2023-04-26T01:54:21.616Z,81.00
2023-04-26T01:54:54.693Z,81.01
2023-04-26T01:55:27.915Z,81.02
2023-04-26T01:56:02.943Z,81.02
2023-04-26T01:56:36.234Z,80.87
2023-04-26T01:57:09.667Z,80.74
2023-04-26T01:57:42.848Z,80.81
2023-04-26T01:58:17.063Z,80.82
2023-04-26T01:58:50.556Z,80.86
2023-04-26T01:59:23.900Z,80.88
2023-04-26T01:59:57.076Z,80.91
2023-04-26T02:00:30.246Z,80.94
2023-04-26T02:01:09.992Z,80.94
2023-04-26T02:01:43.835Z,80.94
2023-04-26T02:02:20.434Z,80.95
2023-04-26T02:02:57.492Z,80.97
2023-04-26T02:03:31.225Z,80.98
2023-04-26T02:04:06.721Z,80.99
2023-04-26T02:04:40.019Z,81.00
2023-04-26T02:05:13.284Z,80.99
2023-04-26T02:05:46.997Z,81.00
2023-04-26T02:06:20.549Z,81.02
2023-04-26T02:06:53.815Z,81.04
2023-04-26T02:07:27.027Z,81.03
2023-04-26T02:08:00.243Z,81.02
2023-04-26T02:08:33.730Z,81.04
2023-04-26T02:09:06.869Z,81.05
2023-04-26T02:09:39.993Z,81.05
2023-04-26T02:10:13.502Z,81.05
2023-04-26T02:10:46.695Z,81.05
2023-04-26T02:11:20.057Z,81.06
2023-04-26T02:11:53.343Z,81.07
2023-04-26T02:12:26.527Z,81.08
2023-04-26T02:12:59.629Z,81.08
2023-04-26T02:13:32.825Z,81.08
2023-04-26T02:14:06.016Z,81.07
2023-04-26T02:14:39.141Z,81.09
2023-04-26T02:15:12.331Z,81.08
2023-04-26T02:15:49.004Z,81.09
2023-04-26T02:16:22.660Z,81.09
2023-04-26T02:16:57.275Z,81.08
2023-04-26T02:17:31.082Z,80.98
2023-04-26T02:18:04.285Z,80.99
2023-04-26T02:18:37.470Z,80.90
2023-04-26T02:19:11.195Z,80.90
2023-04-26T02:19:44.267Z,80.87
2023-04-26T02:20:17.418Z,80.89
2023-04-26T02:20:50.908Z,80.92
2023-04-26T02:21:24.125Z,80.90
2023-04-26T02:21:58.340Z,80.92
2023-04-26T02:22:31.882Z,80.95
2023-04-26T02:23:05.034Z,80.98
2023-04-26T02:23:38.224Z,80.99
2023-04-26T02:24:11.605Z,81.01
2023-04-26T02:24:44.765Z,80.96
2023-04-26T02:25:18.052Z,80.85
2023-04-26T02:25:51.410Z,80.83
2023-04-26T02:26:24.579Z,80.79
2023-04-26T02:27:03.502Z,80.80
2023-04-26T02:27:36.719Z,80.83
2023-04-26T02:28:10.075Z,80.81
2023-04-26T02:28:43.193Z,80.84
2023-04-26T02:29:16.447Z,80.86
2023-04-26T02:29:50.075Z,80.84
2023-04-26T02:30:23.277Z,80.84
2023-04-26T02:30:57.052Z,80.86
2023-04-26T02:31:30.235Z,80.85
2023-04-26T02:32:03.381Z,80.61
2023-04-26T02:32:36.842Z,80.58
2023-04-26T02:33:10.214Z,80.62
2023-04-26T02:33:43.348Z,80.64
2023-04-26T02:34:16.807Z,80.60
2023-04-26T02:34:50.004Z,80.59
2023-04-26T02:35:23.740Z,80.61
2023-04-26T02:35:56.875Z,80.61
2023-04-26T02:36:30.294Z,80.59
2023-04-26T02:37:03.421Z,80.54
2023-04-26T02:37:37.587Z,80.52
2023-04-26T02:38:10.692Z,80.56
2023-04-26T02:38:43.761Z,80.60
2023-04-26T02:39:17.260Z,80.58
2023-04-26T02:39:51.766Z,80.57
2023-04-26T02:40:24.827Z,80.59
2023-04-26T02:40:59.050Z,80.60
2023-04-26T02:41:33.079Z,80.59
2023-04-26T02:42:09.767Z,80.58
2023-04-26T02:42:43.013Z,80.56
2023-04-26T02:43:16.225Z,80.53
2023-04-26T02:43:49.334Z,80.52
2023-04-26T02:44:22.456Z,80.56
2023-04-26T02:44:55.823Z,80.58
2023-04-26T02:45:28.965Z,80.58
2023-04-26T02:46:02.179Z,80.59
2023-04-26T02:46:35.605Z,80.61
2023-04-26T02:47:09.380Z,80.60
2023-04-26T02:47:42.580Z,80.62
2023-04-26T02:48:15.705Z,80.65
2023-04-26T02:48:49.006Z,80.64
2023-04-26T02:49:22.334Z,80.65
2023-04-26T02:49:56.338Z,80.66
2023-04-26T02:50:29.454Z,80.67
2023-04-26T02:51:02.582Z,80.69
2023-04-26T02:51:35.749Z,80.70
2023-04-26T02:52:08.978Z,80.70
2023-04-26T02:52:42.093Z,80.71
2023-04-26T02:53:16.227Z,80.71
2023-04-26T02:53:49.386Z,80.72
2023-04-26T02:54:22.510Z,80.71
2023-04-26T02:54:55.652Z,80.72
2023-04-26T02:55:28.738Z,80.73
2023-04-26T02:56:02.221Z,80.73
2023-04-26T02:56:35.560Z,80.74
2023-04-26T02:57:08.667Z,80.75
2023-04-26T02:57:41.793Z,80.64
2023-04-26T02:58:14.990Z,80.56
2023-04-26T02:58:48.112Z,80.53
2023-04-26T02:59:21.635Z,80.54
2023-04-26T02:59:55.897Z,80.46
2023-04-26T03:00:29.215Z,80.49
2023-04-26T03:01:02.596Z,80.54
2023-04-26T03:01:35.859Z,80.56
2023-04-26T03:02:09.220Z,80.52
2023-04-26T03:02:42.691Z,80.52
2023-04-26T03:03:17.052Z,80.54
2023-04-26T03:03:50.822Z,80.53
2023-04-26T03:04:24.168Z,80.52
2023-04-26T03:04:57.473Z,80.53
2023-04-26T03:05:30.761Z,80.51
2023-04-26T03:06:04.446Z,80.51
2023-04-26T03:06:37.636Z,80.49
2023-04-26T03:07:10.710Z,80.51
2023-04-26T03:07:43.773Z,80.49
2023-04-26T03:08:17.213Z,80.48
2023-04-26T03:08:50.836Z,80.48
2023-04-26T03:09:24.178Z,80.46
2023-04-26T03:09:58.203Z,80.48
2023-04-26T03:10:31.535Z,80.49
2023-04-26T03:11:04.660Z,80.50
2023-04-26T03:11:37.797Z,80.49
2023-04-26T03:12:11.091Z,80.48
2023-04-26T03:12:44.414Z,80.45
2023-04-26T03:13:17.551Z,80.44
2023-04-26T03:13:50.758Z,80.45
2023-04-26T03:14:24.037Z,80.47
2023-04-26T03:14:57.397Z,80.50
2023-04-26T03:15:30.549Z,80.52
2023-04-26T03:16:03.717Z,80.52
2023-04-26T03:16:43.725Z,80.44
2023-04-26T03:17:16.872Z,80.38
2023-04-26T03:17:50.001Z,80.39
2023-04-26T03:18:23.167Z,80.39
2023-04-26T03:18:56.364Z,80.35
2023-04-26T03:19:29.458Z,80.36
2023-04-26T03:20:02.894Z,80.36
2023-04-26T03:20:36.190Z,80.33
2023-04-26T03:21:09.457Z,80.34
2023-04-26T03:21:42.575Z,80.34
2023-04-26T03:22:16.483Z,80.31
2023-04-26T03:22:50.111Z,80.28
2023-04-26T03:23:25.611Z,80.27
2023-04-26T03:23:58.772Z,80.28
2023-04-26T03:24:32.068Z,80.31
2023-04-26T03:25:05.869Z,80.32
2023-04-26T03:25:39.189Z,80.31
2023-04-26T03:26:12.444Z,80.32
2023-04-26T03:26:45.651Z,80.31
2023-04-26T03:27:18.851Z,80.32
2023-04-26T03:27:52.075Z,80.33
2023-04-26T03:28:25.266Z,80.34
2023-04-26T03:28:58.610Z,80.32
2023-04-26T03:29:31.777Z,80.33
2023-04-26T03:30:06.092Z,80.34
2023-04-26T03:30:39.296Z,80.32
2023-04-26T03:31:12.500Z,80.29
2023-04-26T03:31:45.826Z,80.26
2023-04-26T03:32:19.116Z,80.29
2023-04-26T03:32:53.005Z,80.28
2023-04-26T03:33:26.092Z,80.30
2023-04-26T03:33:59.202Z,80.31
2023-04-26T03:34:32.366Z,80.30
2023-04-26T03:35:05.661Z,80.30
2023-04-26T03:35:38.906Z,80.30
2023-04-26T03:36:12.989Z,80.31
2023-04-26T03:36:46.188Z,80.31
2023-04-26T03:37:19.396Z,80.33
2023-04-26T03:37:53.611Z,80.33
2023-04-26T03:38:27.427Z,80.36
2023-04-26T03:39:00.576Z,80.36
2023-04-26T03:39:33.759Z,80.36
2023-04-26T03:40:08.881Z,80.37
2023-04-26T03:40:42.115Z,80.37
2023-04-26T03:41:15.249Z,80.35
2023-04-26T03:41:48.641Z,80.37
2023-04-26T03:42:21.838Z,80.37
2023-04-26T03:42:55.020Z,80.38
2023-04-26T03:43:28.176Z,80.39
2023-04-26T03:44:01.416Z,80.36
2023-04-26T03:44:34.714Z,80.32
2023-04-26T03:45:08.291Z,80.32
2023-04-26T03:45:41.544Z,80.32
2023-04-26T03:46:14.842Z,80.32
2023-04-26T03:46:48.072Z,80.32
2023-04-26T03:47:21.344Z,80.32
2023-04-26T03:47:54.624Z,80.32
2023-04-26T03:48:27.806Z,80.33
2023-04-26T03:49:01.086Z,80.34
2023-04-26T03:49:34.287Z,80.32
2023-04-26T03:50:08.540Z,80.27
2023-04-26T03:50:41.795Z,80.29
2023-04-26T03:51:15.113Z,80.29
2023-04-26T03:51:48.277Z,80.29
2023-04-26T03:52:21.441Z,80.32
2023-04-26T03:52:54.569Z,80.34
2023-04-26T03:53:27.771Z,80.34
2023-04-26T03:54:00.978Z,80.37
2023-04-26T03:54:34.918Z,80.36
2023-04-26T03:55:10.326Z,80.37
2023-04-26T03:55:43.439Z,80.36
2023-04-26T03:56:17.293Z,80.37
2023-04-26T03:56:50.442Z,80.39
2023-04-26T03:57:23.666Z,80.40
2023-04-26T03:57:56.751Z,80.42
2023-04-26T03:58:29.859Z,80.43
2023-04-26T03:59:03.252Z,80.44
2023-04-26T03:59:36.603Z,80.43
2023-04-26T04:00:14.467Z,80.46
2023-04-26T04:00:47.623Z,80.48
2023-04-26T04:01:21.108Z,80.48
2023-04-26T04:01:54.356Z,80.50
2023-04-26T04:02:27.564Z,80.51
2023-04-26T04:03:01.050Z,80.52
2023-04-26T04:03:34.343Z,80.48
2023-04-26T04:04:08.125Z,80.42
2023-04-26T04:04:42.467Z,80.37
2023-04-26T04:05:16.163Z,80.28
2023-04-26T04:05:49.683Z,80.28
2023-04-26T04:06:22.922Z,80.28
2023-04-26T04:06:56.225Z,80.30
2023-04-26T04:07:29.328Z,80.32
2023-04-26T04:08:02.628Z,80.33
2023-04-26T04:08:35.717Z,80.32
2023-04-26T04:09:09.423Z,80.30
2023-04-26T04:09:42.560Z,80.25
2023-04-26T04:10:16.690Z,80.22
2023-04-26T04:10:50.063Z,80.22
2023-04-26T04:11:23.475Z,80.21
2023-04-26T04:11:56.726Z,80.19
2023-04-26T04:12:29.938Z,80.23
2023-04-26T04:13:03.125Z,80.22
2023-04-26T04:13:36.341Z,80.21
2023-04-26T04:14:09.552Z,80.19
2023-04-26T04:14:42.785Z,80.21
2023-04-26T04:15:16.911Z,80.20
2023-04-26T04:15:50.024Z,80.18
2023-04-26T04:16:23.223Z,80.18
2023-04-26T04:16:56.980Z,80.17
2023-04-26T04:17:30.146Z,80.17
2023-04-26T04:18:04.141Z,80.21
2023-04-26T04:18:37.313Z,80.22
2023-04-26T04:19:10.409Z,80.19
2023-04-26T04:19:43.465Z,80.15
2023-04-26T04:20:16.913Z,80.17
2023-04-26T04:20:50.122Z,80.17
2023-04-26T04:21:23.204Z,80.19
2023-04-26T04:21:56.580Z,80.19
2023-04-26T04:22:29.903Z,80.21
2023-04-26T04:23:04.651Z,80.20
2023-04-26T04:23:37.855Z,80.19
2023-04-26T04:24:11.758Z,80.16
2023-04-26T04:24:45.243Z,80.17
2023-04-26T04:25:21.366Z,80.18
2023-04-26T04:25:54.698Z,80.17
2023-04-26T04:26:30.649Z,80.17
2023-04-26T04:27:04.275Z,80.14
2023-04-26T04:27:38.369Z,80.14
2023-04-26T04:28:12.294Z,80.10
2023-04-26T04:28:47.514Z,80.09
2023-04-26T04:29:20.871Z,80.10
2023-04-26T04:29:55.388Z,80.09
2023-04-26T04:30:29.755Z,80.10
2023-04-26T04:31:03.126Z,80.10
2023-04-26T04:31:37.131Z,80.10
2023-04-26T04:32:11.736Z,80.11
2023-04-26T04:32:45.402Z,80.11
2023-04-26T04:33:19.387Z,80.06
2023-04-26T04:33:52.535Z,80.05
2023-04-26T04:34:26.583Z,80.05
2023-04-26T04:34:59.858Z,80.07
2023-04-26T04:35:34.415Z,80.08
2023-04-26T04:36:08.489Z,80.06
2023-04-26T04:36:41.695Z,80.05
2023-04-26T04:37:15.642Z,80.02
2023-04-26T04:37:50.333Z,79.98
2023-04-26T04:38:23.613Z,79.99
2023-04-26T04:38:56.872Z,79.99
2023-04-26T04:39:30.123Z,80.00
2023-04-26T04:40:03.363Z,80.00
2023-04-26T04:40:36.602Z,80.02
2023-04-26T04:41:10.518Z,79.98
2023-04-26T04:41:49.709Z,79.95
2023-04-26T04:42:23.803Z,79.96
2023-04-26T04:42:57.081Z,79.98
2023-04-26T04:43:30.325Z,79.94
2023-04-26T04:44:04.343Z,79.95
2023-04-26T04:44:37.803Z,79.98
2023-04-26T04:45:11.145Z,79.94
2023-04-26T04:45:44.426Z,79.94
2023-04-26T04:46:17.560Z,79.94
2023-04-26T04:46:51.009Z,79.96
2023-04-26T04:47:24.563Z,79.97
2023-04-26T04:47:57.875Z,79.92
2023-04-26T04:48:31.054Z,79.94
2023-04-26T04:49:04.215Z,79.94
2023-04-26T04:49:38.273Z,79.93
2023-04-26T04:50:11.765Z,79.92
2023-04-26T04:50:45.008Z,79.91
2023-04-26T04:51:18.242Z,79.92
2023-04-26T04:51:51.589Z,79.92
2023-04-26T04:52:24.719Z,79.94
2023-04-26T04:52:57.999Z,79.93
2023-04-26T04:53:31.239Z,79.91
2023-04-26T04:54:14.821Z,79.90
2023-04-26T04:54:48.900Z,79.90
2023-04-26T04:55:22.153Z,79.87
2023-04-26T04:55:55.308Z,79.86
2023-04-26T04:56:28.487Z,79.87
2023-04-26T04:57:02.090Z,79.86
2023-04-26T04:57:36.131Z,79.84
2023-04-26T04:58:09.312Z,79.85
2023-04-26T04:58:42.524Z,79.85
2023-04-26T04:59:15.721Z,79.85
2023-04-26T04:59:48.875Z,79.86
2023-04-26T05:00:22.157Z,79.86
2023-04-26T05:00:56.133Z,79.85
2023-04-26T05:01:29.398Z,79.85
2023-04-26T05:02:02.655Z,79.83
2023-04-26T05:02:37.157Z,79.82
2023-04-26T05:03:11.103Z,79.80
2023-04-26T05:03:44.438Z,79.80
2023-04-26T05:04:18.038Z,79.79
2023-04-26T05:04:51.551Z,79.82
2023-04-26T05:05:24.881Z,79.83
2023-04-26T05:05:58.063Z,79.83
2023-04-26T05:06:34.034Z,79.81
2023-04-26T05:07:07.327Z,79.82
2023-04-26T05:07:40.560Z,79.79
2023-04-26T05:08:13.950Z,79.81
2023-04-26T05:08:47.441Z,79.80
2023-04-26T05:09:20.595Z,79.79
2023-04-26T05:09:53.847Z,79.78
2023-04-26T05:10:27.041Z,79.76
2023-04-26T05:11:00.185Z,79.75
2023-04-26T05:11:33.438Z,79.78
2023-04-26T05:12:06.973Z,79.79
2023-04-26T05:12:40.162Z,79.78
2023-04-26T05:13:13.411Z,79.78
2023-04-26T05:13:47.036Z,79.79
2023-04-26T05:14:20.180Z,79.75
2023-04-26T05:14:53.623Z,79.75
2023-04-26T05:15:26.830Z,79.73
2023-04-26T05:16:00.021Z,79.73
2023-04-26T05:16:33.444Z,79.73
2023-04-26T05:17:06.675Z,79.76
2023-04-26T05:17:42.327Z,79.75
2023-04-26T05:18:15.634Z,79.74
2023-04-26T05:18:48.790Z,79.75
2023-04-26T05:19:22.043Z,79.72
2023-04-26T05:19:55.592Z,79.72
2023-04-26T05:20:29.897Z,79.72
2023-04-26T05:21:03.008Z,79.73
2023-04-26T05:21:36.570Z,79.72
2023-04-26T05:22:09.962Z,79.71
2023-04-26T05:22:43.455Z,79.71
2023-04-26T05:23:16.939Z,79.71
2023-04-26T05:23:50.200Z,79.71
2023-04-26T05:24:23.593Z,79.70
2023-04-26T05:24:56.738Z,79.67
2023-04-26T05:25:29.876Z,79.66
2023-04-26T05:26:06.872Z,79.67
2023-04-26T05:26:40.681Z,79.65
2023-04-26T05:27:13.917Z,79.64
2023-04-26T05:27:47.315Z,79.63
2023-04-26T05:28:20.996Z,79.62
2023-04-26T05:28:54.216Z,79.60
2023-04-26T05:29:33.963Z,79.59
2023-04-26T05:30:08.687Z,79.59
2023-04-26T05:30:41.954Z,79.56
2023-04-26T05:31:15.213Z,79.54
2023-04-26T05:31:48.356Z,79.55
2023-04-26T05:32:21.672Z,79.50
2023-04-26T05:32:57.224Z,79.48
2023-04-26T05:33:31.195Z,79.47
2023-04-26T05:34:04.509Z,79.48
2023-04-26T05:34:38.938Z,79.48
2023-04-26T05:35:12.370Z,79.48
2023-04-26T05:35:46.207Z,79.46
2023-04-26T05:36:19.931Z,79.45
2023-04-26T05:36:53.386Z,79.45
2023-04-26T05:37:26.812Z,79.43
2023-04-26T05:38:00.280Z,79.43
2023-04-26T05:38:33.499Z,79.41
2023-04-26T05:39:07.557Z,79.40
2023-04-26T05:39:40.743Z,79.41
2023-04-26T05:40:14.145Z,79.39
2023-04-26T05:40:48.549Z,79.40
2023-04-26T05:41:21.672Z,79.39
2023-04-26T05:41:54.776Z,79.40
2023-04-26T05:42:27.859Z,79.38
2023-04-26T05:43:00.944Z,79.35
2023-04-26T05:43:34.668Z,79.32
2023-04-26T05:44:07.742Z,79.33
2023-04-26T05:44:41.047Z,79.33
2023-04-26T05:45:14.234Z,79.35
2023-04-26T05:45:54.066Z,79.35
2023-04-26T05:46:27.339Z,79.34
2023-04-26T05:47:00.534Z,79.43
2023-04-26T05:47:33.760Z,79.39
2023-04-26T05:48:07.097Z,79.34
2023-04-26T05:48:40.284Z,79.32
2023-04-26T05:49:13.464Z,79.32
2023-04-26T05:49:46.726Z,79.31
2023-04-26T05:50:19.886Z,79.32
2023-04-26T05:50:53.325Z,79.31
2023-04-26T05:51:26.460Z,79.32
2023-04-26T05:52:01.099Z,79.31
2023-04-26T05:52:34.677Z,79.32
2023-04-26T05:53:07.827Z,79.31
2023-04-26T05:53:42.018Z,79.32
2023-04-26T05:54:15.287Z,79.32
2023-04-26T05:54:48.452Z,79.30
2023-04-26T05:55:21.793Z,79.29
2023-04-26T05:55:55.038Z,79.29
2023-04-26T05:56:29.399Z,79.29
2023-04-26T05:57:02.637Z,79.28
2023-04-26T05:57:35.983Z,79.28
2023-04-26T05:58:09.667Z,79.28
2023-04-26T05:58:42.963Z,79.25
2023-04-26T05:59:16.162Z,79.25
2023-04-26T05:59:49.387Z,79.24
2023-04-26T06:00:23.813Z,79.22
2023-04-26T06:00:56.964Z,79.19
2023-04-26T06:01:30.238Z,79.15
2023-04-26T06:02:05.105Z,79.17
2023-04-26T06:02:38.559Z,79.16
2023-04-26T06:03:13.057Z,79.18
2023-04-26T06:03:47.091Z,79.14
2023-04-26T06:04:20.615Z,79.13
2023-04-26T06:04:54.505Z,79.13
2023-04-26T06:05:28.438Z,79.14
2023-04-26T06:06:02.034Z,79.13
2023-04-26T06:06:35.354Z,79.13
2023-04-26T06:07:08.552Z,79.11
2023-04-26T06:07:41.787Z,79.10
2023-04-26T06:08:15.006Z,79.10
2023-04-26T06:08:48.338Z,79.10
2023-04-26T06:09:21.619Z,79.06
2023-04-26T06:09:54.725Z,79.05
2023-04-26T06:10:27.951Z,79.04
2023-04-26T06:11:01.115Z,79.04
2023-04-26T06:11:34.352Z,79.03
2023-04-26T06:12:07.952Z,79.00
2023-04-26T06:12:41.644Z,78.97
2023-04-26T06:13:14.814Z,78.99
2023-04-26T06:13:48.072Z,79.00
2023-04-26T06:14:30.068Z,78.97
2023-04-26T06:15:04.066Z,78.87
2023-04-26T06:15:37.985Z,78.87
2023-04-26T06:16:11.487Z,78.89
2023-04-26T06:16:44.699Z,78.90
2023-04-26T06:17:17.912Z,78.84
2023-04-26T06:17:51.192Z,78.78
2023-04-26T06:18:24.409Z,78.80
2023-04-26T06:18:57.550Z,78.81
2023-04-26T06:19:30.753Z,78.79
2023-04-26T06:20:05.306Z,78.80
2023-04-26T06:20:38.507Z,78.76
2023-04-26T06:21:11.665Z,78.78
2023-04-26T06:21:44.751Z,78.78
2023-04-26T06:22:17.883Z,78.79
2023-04-26T06:22:51.290Z,78.73
2023-04-26T06:23:24.492Z,78.63
2023-04-26T06:23:57.697Z,78.63
2023-04-26T06:24:30.908Z,78.63
2023-04-26T06:25:07.535Z,78.61
2023-04-26T06:25:44.941Z,78.56
2023-04-26T06:26:18.118Z,78.58
2023-04-26T06:26:51.646Z,78.55
2023-04-26T06:27:25.000Z,78.47
2023-04-26T06:27:58.995Z,78.42
2023-04-26T06:28:32.556Z,78.46
2023-04-26T06:29:06.199Z,78.44
2023-04-26T06:29:39.474Z,78.42
2023-04-26T06:30:12.913Z,78.38
2023-04-26T06:30:46.483Z,78.27
2023-04-26T06:31:21.965Z,78.27
2023-04-26T06:31:55.251Z,78.28
2023-04-26T06:32:28.624Z,78.27
2023-04-26T06:33:02.754Z,78.21
2023-04-26T06:33:36.036Z,78.20
2023-04-26T06:34:09.866Z,78.19
2023-04-26T06:34:45.728Z,78.21
2023-04-26T06:35:18.914Z,78.14
2023-04-26T06:35:52.625Z,78.20
2023-04-26T06:36:26.568Z,78.21
2023-04-26T06:36:59.888Z,78.23
2023-04-26T06:37:33.075Z,78.13
2023-04-26T06:38:06.243Z,78.08
2023-04-26T06:38:39.390Z,78.02
2023-04-26T06:39:12.732Z,77.91
2023-04-26T06:39:46.031Z,77.97
2023-04-26T06:40:19.144Z,77.99
2023-04-26T06:40:52.433Z,77.96
2023-04-26T06:41:25.847Z,77.86
2023-04-26T06:41:58.928Z,77.85
2023-04-26T06:42:32.159Z,77.88
2023-04-26T06:43:05.344Z,77.88
2023-04-26T06:43:38.736Z,77.87
2023-04-26T06:44:11.954Z,77.81
2023-04-26T06:44:45.239Z,77.82
2023-04-26T06:45:19.168Z,77.77
2023-04-26T06:45:52.292Z,77.74
2023-04-26T06:46:25.784Z,77.79
2023-04-26T06:46:59.137Z,77.79
2023-04-26T06:47:32.799Z,77.65
2023-04-26T06:48:06.932Z,77.69
2023-04-26T06:48:40.233Z,77.65
2023-04-26T06:49:13.625Z,77.68
2023-04-26T06:49:46.852Z,77.70
2023-04-26T06:50:20.013Z,77.43
2023-04-26T06:50:53.439Z,77.32
2023-04-26T06:51:27.283Z,77.42
2023-04-26T06:52:00.404Z,77.38
2023-04-26T06:52:33.753Z,77.34
2023-04-26T06:53:07.256Z,77.14
2023-04-26T06:53:41.805Z,77.18
2023-04-26T06:54:15.039Z,77.18
2023-04-26T06:54:56.550Z,77.29
2023-04-26T06:55:31.826Z,77.35
2023-04-26T06:56:06.241Z,77.18
2023-04-26T06:56:39.309Z,77.11
2023-04-26T06:57:12.484Z,77.20
2023-04-26T06:57:45.941Z,77.15
2023-04-26T06:58:19.249Z,77.23
2023-04-26T06:59:00.797Z,77.22
2023-04-26T06:59:33.859Z,77.20
2023-04-26T07:00:07.581Z,77.15
2023-04-26T07:00:40.830Z,77.22
2023-04-26T07:01:13.986Z,77.24
2023-04-26T07:01:47.147Z,77.23
2023-04-26T07:02:20.282Z,77.25
2023-04-26T07:02:53.544Z,77.22
2023-04-26T07:03:27.250Z,77.21
2023-04-26T07:04:04.757Z,77.14
2023-04-26T07:04:38.406Z,77.13
2023-04-26T07:05:11.751Z,77.15
2023-04-26T07:05:44.949Z,77.11
2023-04-26T07:06:18.105Z,77.00
2023-04-26T07:06:51.463Z,77.06
2023-04-26T07:07:24.561Z,77.06
2023-04-26T07:07:57.681Z,77.03
2023-04-26T07:08:31.610Z,76.82
2023-04-26T07:09:04.865Z,76.91
2023-04-26T07:09:38.025Z,76.88
2023-04-26T07:10:11.372Z,76.74
2023-04-26T07:10:44.603Z,76.77
2023-04-26T07:11:17.821Z,76.50
2023-04-26T07:11:51.189Z,76.40
2023-04-26T07:12:24.425Z,76.55
2023-04-26T07:12:57.716Z,76.66
2023-04-26T07:13:31.812Z,76.73